createdAt,value
2023-04-02T00:01:01.473Z,10.72
2023-04-02T00:03:43.985Z,10.75
2023-04-02T00:06:40.616Z,10.77
2023-04-02T00:09:15.355Z,10.79
2023-04-02T00:11:48.799Z,10.80
2023-04-02T00:14:29.336Z,10.77
2023-04-02T00:16:57.750Z,10.69
2023-04-02T00:19:36.042Z,10.67
2023-04-02T00:22:05.897Z,10.64
2023-04-02T00:24:33.689Z,10.63
2023-04-02T00:27:01.620Z,10.65
2023-04-02T00:29:29.514Z,10.66
2023-04-02T00:31:57.322Z,10.66
2023-04-02T00:34:36.558Z,10.67
2023-04-02T00:37:04.384Z,10.70
2023-04-02T00:39:34.747Z,10.68
2023-04-02T00:42:05.655Z,10.62
2023-04-02T00:44:34.625Z,10.60
2023-04-02T00:47:03.393Z,10.57
2023-04-02T00:49:32.997Z,10.55
2023-04-02T00:52:02.076Z,10.55
2023-04-02T00:54:31.433Z,10.49
2023-04-02T00:56:59.634Z,10.44
2023-04-02T00:59:32.043Z,10.47
2023-04-02T01:02:17.348Z,10.47
2023-04-02T01:05:05.716Z,10.38
2023-04-02T01:07:52.606Z,10.35
2023-04-02T01:10:24.000Z,10.34
2023-04-02T01:13:08.866Z,10.34
2023-04-02T01:15:37.771Z,10.33
2023-04-02T01:18:21.529Z,10.31
2023-04-02T01:20:55.313Z,10.32
2023-04-02T01:23:24.180Z,10.26
2023-04-02T01:25:58.027Z,10.25
2023-04-02T01:28:27.316Z,10.24
2023-04-02T01:30:55.954Z,10.22
2023-04-02T01:33:30.340Z,10.18
2023-04-02T01:36:05.881Z,10.10
2023-04-02T01:38:34.870Z,10.08
2023-04-02T01:41:08.100Z,10.05
2023-04-02T01:43:45.387Z,10.06
2023-04-02T01:46:26.995Z,10.08
2023-04-02T01:48:55.467Z,10.07
2023-04-02T01:51:28.371Z,10.08
2023-04-02T01:53:56.648Z,10.06
2023-04-02T01:56:24.533Z,10.05
2023-04-02T01:58:54.321Z,10.04
2023-04-02T02:01:23.295Z,10.08
2023-04-02T02:03:52.989Z,10.07
2023-04-02T02:06:21.269Z,10.07
2023-04-02T02:08:59.485Z,10.09
2023-04-02T02:11:29.169Z,10.08
2023-04-02T02:14:00.892Z,10.06
2023-04-02T02:16:29.912Z,10.07
2023-04-02T02:18:59.248Z,10.06
2023-04-02T02:21:30.589Z,10.06
2023-04-02T02:23:58.435Z,10.08
2023-04-02T02:26:26.453Z,10.04
2023-04-02T02:28:55.695Z,10.04
2023-04-02T02:31:27.894Z,10.05
2023-04-02T02:33:58.279Z,10.09
2023-04-02T02:36:40.095Z,10.09
2023-04-02T02:39:34.554Z,10.07
2023-04-02T02:42:16.712Z,10.07
2023-04-02T02:44:46.521Z,10.05
2023-04-02T02:47:18.937Z,10.05
2023-04-02T02:49:49.895Z,10.06
2023-04-02T02:52:22.034Z,10.08
2023-04-02T02:55:00.411Z,10.09
2023-04-02T02:57:32.247Z,10.23
2023-04-02T03:00:00.801Z,10.22
2023-04-02T03:02:30.521Z,10.29
2023-04-02T03:05:02.914Z,10.24
2023-04-02T03:07:31.606Z,10.18
2023-04-02T03:10:20.019Z,10.27
2023-04-02T03:13:07.224Z,10.25
2023-04-02T03:15:42.530Z,10.32
2023-04-02T03:18:13.239Z,10.34
2023-04-02T03:20:48.854Z,10.33
2023-04-02T03:23:19.265Z,10.33
2023-04-02T03:25:48.547Z,10.26
2023-04-02T03:28:18.387Z,10.20
2023-04-02T03:30:47.905Z,10.21
2023-04-02T03:33:21.566Z,10.25
2023-04-02T03:35:55.041Z,10.30
2023-04-02T03:38:24.981Z,10.28
2023-04-02T03:40:59.655Z,10.30
2023-04-02T03:43:29.405Z,10.44
2023-04-02T03:45:59.294Z,10.45
2023-04-02T03:48:29.025Z,10.50
2023-04-02T03:50:58.507Z,10.51
2023-04-02T03:53:26.676Z,10.42
2023-04-02T03:55:54.598Z,10.37
2023-04-02T03:58:42.174Z,10.36
2023-04-02T04:01:13.433Z,10.33
2023-04-02T04:03:48.927Z,10.36
2023-04-02T04:06:21.395Z,10.42
2023-04-02T04:08:50.685Z,10.43
2023-04-02T04:11:20.006Z,10.41
2023-04-02T04:13:54.849Z,10.43
2023-04-02T04:16:26.588Z,10.45
2023-04-02T04:19:14.520Z,10.39
2023-04-02T04:21:45.330Z,10.44
2023-04-02T04:24:24.260Z,10.45
2023-04-02T04:27:10.177Z,10.41
2023-04-02T04:29:56.368Z,10.39
2023-04-02T04:32:32.276Z,10.43
2023-04-02T04:35:06.293Z,10.39
2023-04-02T04:37:35.554Z,10.37
2023-04-02T04:40:09.921Z,10.34
2023-04-02T04:42:38.487Z,10.35
2023-04-02T04:45:10.801Z,10.38
2023-04-02T04:47:42.938Z,10.42
2023-04-02T04:50:11.272Z,10.44
2023-04-02T04:52:40.105Z,10.43
2023-04-02T04:55:26.998Z,10.42
2023-04-02T04:57:56.320Z,10.42
2023-04-02T05:00:28.980Z,10.43
2023-04-02T05:03:01.882Z,10.45
2023-04-02T05:05:31.308Z,10.42
2023-04-02T05:08:00.870Z,10.49
2023-04-02T05:10:34.364Z,10.49
2023-04-02T05:13:06.559Z,10.43
2023-04-02T05:15:52.231Z,10.46
2023-04-02T05:18:30.226Z,10.49
2023-04-02T05:21:16.701Z,10.52
2023-04-02T05:23:49.140Z,10.52
2023-04-02T05:26:33.439Z,10.55
2023-04-02T05:29:07.533Z,10.56
2023-04-02T05:31:40.772Z,10.60
2023-04-02T05:34:08.678Z,10.63
2023-04-02T05:36:37.607Z,10.64
2023-04-02T05:39:08.326Z,10.64
2023-04-02T05:41:41.283Z,10.60
2023-04-02T05:44:12.272Z,10.52
2023-04-02T05:46:50.709Z,10.52
2023-04-02T05:49:41.751Z,10.61
2023-04-02T05:52:23.942Z,10.60
2023-04-02T05:54:52.503Z,10.55
2023-04-02T05:57:39.374Z,10.54
2023-04-02T06:00:34.468Z,10.48
2023-04-02T06:03:27.441Z,10.43
2023-04-02T06:05:58.083Z,10.37
2023-04-02T06:08:46.365Z,10.43
2023-04-02T06:11:18.035Z,10.40
2023-04-02T06:13:46.998Z,10.36
2023-04-02T06:16:16.048Z,10.31
2023-04-02T06:18:44.386Z,10.29
2023-04-02T06:21:13.147Z,10.25
2023-04-02T06:23:42.962Z,10.21
2023-04-02T06:26:20.692Z,10.18
2023-04-02T06:29:02.647Z,10.20
2023-04-02T06:31:30.872Z,10.21
2023-04-02T06:33:59.232Z,10.19
2023-04-02T06:36:29.975Z,10.18
2023-04-02T06:39:04.786Z,10.16
2023-04-02T06:41:34.383Z,10.20
2023-04-02T06:44:34.149Z,10.21
2023-04-02T06:47:13.919Z,10.14
2023-04-02T06:49:47.285Z,10.16
2023-04-02T06:52:17.882Z,10.14
2023-04-02T06:54:46.597Z,10.17
2023-04-02T06:57:14.736Z,10.16
2023-04-02T06:59:44.156Z,10.14
2023-04-02T07:02:28.514Z,10.11
2023-04-02T07:05:03.402Z,10.14
2023-04-02T07:07:32.715Z,10.17
2023-04-02T07:10:03.793Z,10.21
2023-04-02T07:12:32.406Z,10.23
2023-04-02T07:15:04.456Z,10.22
2023-04-02T07:17:33.745Z,10.23
2023-04-02T07:20:01.559Z,10.23
2023-04-02T07:22:29.781Z,10.24
2023-04-02T07:25:00.469Z,10.23
2023-04-02T07:27:28.414Z,10.25
2023-04-02T07:29:56.378Z,10.22
2023-04-02T07:32:24.227Z,10.17
2023-04-02T07:34:52.007Z,10.18
2023-04-02T07:37:21.248Z,10.19
2023-04-02T07:39:49.273Z,10.17
2023-04-02T07:42:17.054Z,10.16
2023-04-02T07:44:45.318Z,10.20
2023-04-02T07:47:13.376Z,10.24
2023-04-02T07:49:41.833Z,10.25
2023-04-02T07:52:09.621Z,10.26
2023-04-02T07:54:38.339Z,10.27
2023-04-02T07:57:06.297Z,10.31
2023-04-02T07:59:34.199Z,10.33
2023-04-02T08:02:02.945Z,10.38
2023-04-02T08:04:32.459Z,10.43
2023-04-02T08:07:01.845Z,10.48
2023-04-02T08:09:29.835Z,10.52
2023-04-02T08:11:57.703Z,10.57
2023-04-02T08:14:25.703Z,10.61
2023-04-02T08:16:54.396Z,10.65
2023-04-02T08:19:25.121Z,10.69
2023-04-02T08:21:54.388Z,10.71
2023-04-02T08:24:22.323Z,10.74
2023-04-02T08:26:51.630Z,10.76
2023-04-02T08:29:19.877Z,10.77
2023-04-02T08:31:48.271Z,10.77
2023-04-02T08:34:16.360Z,10.75
2023-04-02T08:36:44.164Z,10.76
2023-04-02T08:39:12.745Z,10.76
2023-04-02T08:41:49.622Z,10.73
2023-04-02T08:44:38.076Z,10.70
2023-04-02T08:47:06.412Z,10.78
2023-04-02T08:49:43.997Z,10.81
2023-04-02T08:52:31.415Z,10.84
2023-04-02T08:55:00.479Z,10.86
2023-04-02T08:57:28.440Z,10.87
2023-04-02T09:00:00.182Z,10.84
2023-04-02T09:02:30.035Z,10.83
2023-04-02T09:04:58.494Z,10.80
2023-04-02T09:07:26.989Z,10.83
2023-04-02T09:09:56.548Z,10.85
2023-04-02T09:12:31.883Z,10.88
2023-04-02T09:15:11.189Z,10.91
2023-04-02T09:17:50.510Z,10.93
2023-04-02T09:20:24.235Z,10.96
2023-04-02T09:22:53.217Z,10.89
2023-04-02T09:25:29.852Z,10.84
2023-04-02T09:28:02.751Z,10.80
2023-04-02T09:30:31.503Z,10.79
2023-04-02T09:33:02.281Z,10.78
2023-04-02T09:35:33.975Z,10.81
2023-04-02T09:38:08.070Z,10.84
2023-04-02T09:40:51.498Z,10.88
2023-04-02T09:43:26.448Z,10.94
2023-04-02T09:45:56.087Z,11.00
2023-04-02T09:48:24.213Z,10.95
2023-04-02T09:51:03.272Z,10.91
2023-04-02T09:53:33.405Z,10.91
2023-04-02T09:56:07.395Z,10.90
2023-04-02T09:58:35.949Z,10.94
2023-04-02T10:01:25.417Z,10.94
2023-04-02T10:03:54.039Z,10.91
2023-04-02T10:06:22.280Z,10.92
2023-04-02T10:08:51.944Z,10.90
2023-04-02T10:11:21.640Z,10.88
2023-04-02T10:13:49.398Z,10.89
2023-04-02T10:16:20.128Z,10.87
2023-04-02T10:18:54.828Z,10.86
2023-04-02T10:21:27.567Z,10.89
2023-04-02T10:23:55.747Z,10.85
2023-04-02T10:26:30.674Z,10.84
2023-04-02T10:29:07.764Z,10.82
2023-04-02T10:31:42.518Z,10.81
2023-04-02T10:34:12.574Z,10.73
2023-04-02T10:36:51.523Z,10.72
2023-04-02T10:39:24.305Z,10.72
2023-04-02T10:41:52.279Z,10.69
2023-04-02T10:44:26.249Z,10.68
2023-04-02T10:47:13.399Z,10.65
2023-04-02T10:50:04.633Z,10.63
2023-04-02T10:52:38.567Z,10.56
2023-04-02T10:55:08.821Z,10.53
2023-04-02T10:57:37.598Z,10.50
2023-04-02T11:00:08.161Z,10.50
2023-04-02T11:02:59.390Z,10.52
2023-04-02T11:05:32.813Z,10.51
2023-04-02T11:08:05.068Z,10.48
2023-04-02T11:10:34.424Z,10.44
2023-04-02T11:13:05.498Z,10.42
2023-04-02T11:15:36.132Z,10.37
2023-04-02T11:18:04.945Z,10.35
2023-04-02T11:20:49.068Z,10.34
2023-04-02T11:23:18.525Z,10.31
2023-04-02T11:25:46.913Z,10.29
2023-04-02T11:28:30.947Z,10.30
2023-04-02T11:30:58.908Z,10.29
2023-04-02T11:33:39.131Z,10.27
2023-04-02T11:36:27.365Z,10.24
2023-04-02T11:39:04.425Z,10.24
2023-04-02T11:41:54.899Z,10.19
2023-04-02T11:44:23.641Z,10.10
2023-04-02T11:46:51.848Z,10.07
2023-04-02T11:49:36.505Z,10.11
2023-04-02T11:52:12.058Z,10.12
2023-04-02T11:54:40.905Z,10.12
2023-04-02T11:57:12.190Z,10.19
2023-04-02T12:00:01.357Z,10.23
2023-04-02T12:02:34.967Z,10.21
2023-04-02T12:05:09.358Z,10.18
2023-04-02T12:08:07.869Z,10.18
2023-04-02T12:10:53.008Z,10.20
2023-04-02T12:13:21.663Z,10.21
2023-04-02T12:15:49.932Z,10.23
2023-04-02T12:18:24.349Z,10.23
2023-04-02T12:20:53.304Z,10.22
2023-04-02T12:23:26.782Z,10.20
2023-04-02T12:25:56.746Z,10.19
2023-04-02T12:28:24.662Z,10.19
2023-04-02T12:30:53.637Z,10.19
2023-04-02T12:33:22.166Z,10.16
2023-04-02T12:35:51.255Z,10.20
2023-04-02T12:38:28.077Z,10.28
2023-04-02T12:40:56.816Z,10.33
2023-04-02T12:43:25.829Z,10.35
2023-04-02T12:45:54.386Z,10.39
2023-04-02T12:48:22.412Z,10.44
2023-04-02T12:50:50.673Z,10.51
2023-04-02T12:53:21.857Z,10.56
2023-04-02T12:55:50.662Z,10.61
2023-04-02T12:58:23.946Z,10.68
2023-04-02T13:00:52.040Z,10.74
2023-04-02T13:03:21.676Z,10.76
2023-04-02T13:05:51.578Z,10.79
2023-04-02T13:08:27.409Z,10.84
2023-04-02T13:10:56.823Z,10.83
2023-04-02T13:13:30.137Z,10.87
2023-04-02T13:16:24.586Z,10.89
2023-04-02T13:19:29.104Z,10.87
2023-04-02T13:21:57.625Z,10.91
2023-04-02T13:24:26.310Z,10.92
2023-04-02T13:26:55.465Z,10.93
2023-04-02T13:29:24.459Z,10.94
2023-04-02T13:31:53.372Z,10.98
2023-04-02T13:34:21.370Z,10.90
2023-04-02T13:36:55.726Z,10.89
2023-04-02T13:39:23.760Z,10.85
2023-04-02T13:41:52.704Z,10.84
2023-04-02T13:44:21.835Z,10.84
2023-04-02T13:46:49.890Z,10.80
2023-04-02T13:49:18.395Z,10.76
2023-04-02T13:51:47.511Z,10.74
2023-04-02T13:54:20.528Z,10.74
2023-04-02T13:56:48.512Z,10.70
2023-04-02T13:59:16.596Z,10.71
2023-04-02T14:01:45.184Z,10.76
2023-04-02T14:04:16.269Z,10.75
2023-04-02T14:06:44.697Z,10.68
2023-04-02T14:09:31.288Z,10.65
2023-04-02T14:12:18.488Z,10.61
2023-04-02T14:14:50.685Z,10.63
2023-04-02T14:17:18.467Z,10.62
2023-04-02T14:20:04.874Z,10.62
2023-04-02T14:22:43.867Z,10.64
2023-04-02T14:25:30.699Z,10.62
2023-04-02T14:28:04.747Z,10.61
2023-04-02T14:30:51.580Z,10.61
2023-04-02T14:33:35.185Z,10.57
2023-04-02T14:36:16.767Z,10.55
2023-04-02T14:38:54.446Z,10.52
2023-04-02T14:41:25.097Z,10.50
2023-04-02T14:44:00.317Z,10.49
2023-04-02T14:46:28.494Z,10.51
2023-04-02T14:49:06.250Z,10.52
2023-04-02T14:51:37.548Z,10.52
2023-04-02T14:54:07.505Z,10.51
2023-04-02T14:56:40.765Z,10.50
2023-04-02T14:59:18.545Z,10.48
2023-04-02T15:01:47.650Z,10.48
2023-04-02T15:04:23.342Z,10.53
2023-04-02T15:06:52.653Z,10.54
2023-04-02T15:09:24.615Z,10.52
2023-04-02T15:12:00.047Z,10.53
2023-04-02T15:14:39.073Z,10.54
2023-04-02T15:17:09.272Z,10.52
2023-04-02T15:19:37.259Z,10.53
2023-04-02T15:22:10.041Z,10.56
2023-04-02T15:24:48.024Z,10.58
2023-04-02T15:27:27.633Z,10.54
2023-04-02T15:30:09.527Z,10.49
2023-04-02T15:32:39.776Z,10.47
2023-04-02T15:35:27.397Z,10.47
2023-04-02T15:37:57.646Z,10.44
2023-04-02T15:40:28.445Z,10.46
2023-04-02T15:43:07.294Z,10.43
2023-04-02T15:45:38.575Z,10.34
2023-04-02T15:48:18.970Z,10.35
2023-04-02T15:50:51.659Z,10.33
2023-04-02T15:53:26.389Z,10.27
2023-04-02T15:56:07.835Z,10.21
2023-04-02T15:58:38.536Z,10.13
2023-04-02T16:01:11.680Z,10.15
2023-04-02T16:03:49.537Z,10.12
2023-04-02T16:06:20.440Z,10.04
2023-04-02T16:08:57.655Z,9.99
2023-04-02T16:11:26.224Z,9.97
2023-04-02T16:14:02.269Z,9.95
2023-04-02T16:16:32.810Z,9.94
2023-04-02T16:19:16.372Z,9.91
2023-04-02T16:21:49.261Z,9.89
2023-04-02T16:24:19.126Z,9.87
2023-04-02T16:26:56.943Z,9.86
2023-04-02T16:29:55.455Z,9.83
2023-04-02T16:32:34.378Z,9.82
2023-04-02T16:35:31.067Z,9.81
2023-04-02T16:38:16.389Z,9.80
2023-04-02T16:40:49.503Z,9.79
2023-04-02T16:43:26.422Z,9.76
2023-04-02T16:45:54.304Z,9.73
2023-04-02T16:48:40.744Z,9.73
2023-04-02T16:51:12.754Z,9.74
2023-04-02T16:53:58.711Z,9.72
2023-04-02T16:56:33.417Z,9.73
2023-04-02T16:59:04.426Z,9.73
2023-04-02T17:01:32.260Z,9.70
2023-04-02T17:04:08.860Z,9.65
2023-04-02T17:06:43.976Z,9.67
2023-04-02T17:09:18.576Z,9.65
2023-04-02T17:11:49.239Z,9.63
2023-04-02T17:14:20.115Z,9.58
2023-04-02T17:16:50.357Z,9.58
2023-04-02T17:19:18.934Z,9.58
2023-04-02T17:21:47.651Z,9.58
2023-04-02T17:24:17.462Z,9.60
2023-04-02T17:26:47.774Z,9.60
2023-04-02T17:29:23.767Z,9.59
2023-04-02T17:31:51.795Z,9.58
2023-04-02T17:34:24.272Z,9.62
2023-04-02T17:36:57.745Z,9.57
2023-04-02T17:39:32.610Z,9.56
2023-04-02T17:42:09.580Z,9.59
2023-04-02T17:44:42.204Z,9.65
2023-04-02T17:47:13.761Z,9.69
2023-04-02T17:49:44.645Z,9.74
2023-04-02T17:52:17.768Z,9.79
2023-04-02T17:54:52.785Z,9.80
2023-04-02T17:57:21.175Z,9.83
2023-04-02T17:59:55.396Z,9.86
2023-04-02T18:02:32.961Z,9.89
2023-04-02T18:05:16.044Z,9.84
2023-04-02T18:07:46.906Z,9.92
2023-04-02T18:10:33.769Z,9.92
2023-04-02T18:13:02.634Z,9.90
2023-04-02T18:15:50.965Z,9.95
2023-04-02T18:18:24.378Z,10.02
2023-04-02T18:21:03.825Z,10.01
2023-04-02T18:23:41.155Z,10.03
2023-04-02T18:26:13.490Z,10.01
2023-04-02T18:29:00.437Z,10.02
2023-04-02T18:31:36.061Z,10.01
2023-04-02T18:34:19.785Z,9.96
2023-04-02T18:36:52.058Z,9.93
2023-04-02T18:39:27.424Z,9.89
2023-04-02T18:41:55.378Z,9.85
2023-04-02T18:44:42.373Z,9.81
2023-04-02T18:47:19.949Z,9.79
2023-04-02T18:50:03.302Z,9.78
2023-04-02T18:52:31.863Z,9.73
2023-04-02T18:55:01.698Z,9.73
2023-04-02T18:57:31.355Z,9.74
2023-04-02T18:59:59.142Z,9.74
2023-04-02T19:02:42.292Z,9.71
2023-04-02T19:05:14.879Z,9.68
2023-04-02T19:07:44.881Z,9.62
2023-04-02T19:10:22.735Z,9.62
2023-04-02T19:12:50.527Z,9.64
2023-04-02T19:15:21.424Z,9.64
2023-04-02T19:18:15.893Z,9.63
2023-04-02T19:20:58.849Z,9.61
2023-04-02T19:23:37.676Z,9.57
2023-04-02T19:26:15.435Z,9.54
2023-04-02T19:28:46.446Z,9.52
2023-04-02T19:31:33.098Z,9.49
2023-04-02T19:34:01.433Z,9.46
2023-04-02T19:36:33.129Z,9.44
2023-04-02T19:39:04.881Z,9.42
2023-04-02T19:41:39.197Z,9.41
2023-04-02T19:44:08.289Z,9.41
2023-04-02T19:46:36.173Z,9.40
2023-04-02T19:49:04.167Z,9.41
2023-04-02T19:51:33.568Z,9.37
2023-04-02T19:54:02.207Z,9.37
2023-04-02T19:56:30.438Z,9.37
2023-04-02T19:59:02.255Z,9.36
2023-04-02T20:01:33.132Z,9.35
2023-04-02T20:04:01.308Z,9.34
2023-04-02T20:06:31.512Z,9.35
2023-04-02T20:08:59.451Z,9.34
2023-04-02T20:11:27.628Z,9.33
2023-04-02T20:13:56.310Z,9.34
2023-04-02T20:16:24.211Z,9.31
2023-04-02T20:18:52.414Z,9.30
2023-04-02T20:21:21.450Z,9.30
2023-04-02T20:23:52.600Z,9.32
2023-04-02T20:26:20.934Z,9.31
2023-04-02T20:28:48.810Z,9.32
2023-04-02T20:31:17.404Z,9.32
2023-04-02T20:33:45.647Z,9.31
2023-04-02T20:36:15.918Z,9.31
2023-04-02T20:38:45.454Z,9.33
2023-04-02T20:41:15.680Z,9.29
2023-04-02T20:43:43.556Z,9.26
2023-04-02T20:46:12.545Z,9.24
2023-04-02T20:48:40.766Z,9.24
2023-04-02T20:51:09.399Z,9.24
2023-04-02T20:53:37.881Z,9.23
2023-04-02T20:56:07.896Z,9.19
2023-04-02T20:58:36.003Z,9.15
2023-04-02T21:01:19.372Z,9.09
2023-04-02T21:03:49.473Z,9.05
2023-04-02T21:06:18.468Z,9.00
2023-04-02T21:08:46.702Z,8.97
2023-04-02T21:11:16.613Z,8.95
2023-04-02T21:13:44.903Z,8.93
2023-04-02T21:16:13.480Z,8.91
2023-04-02T21:18:43.196Z,8.88
2023-04-02T21:21:13.606Z,8.85
2023-04-02T21:23:42.179Z,8.81
2023-04-02T21:26:11.229Z,8.77
2023-04-02T21:28:39.665Z,8.74
2023-04-02T21:31:18.004Z,8.72
2023-04-02T21:33:50.547Z,8.69
2023-04-02T21:36:19.336Z,8.68
2023-04-02T21:38:48.040Z,8.64
2023-04-02T21:41:16.118Z,8.62
2023-04-02T21:43:44.282Z,8.62
2023-04-02T21:46:12.279Z,8.61
2023-04-02T21:48:41.800Z,8.61
2023-04-02T21:51:10.930Z,8.58
2023-04-02T21:53:40.972Z,8.55
2023-04-02T21:56:12.571Z,8.55
2023-04-02T21:58:41.012Z,8.53
2023-04-02T22:01:16.809Z,8.54
2023-04-02T22:03:48.410Z,8.54
2023-04-02T22:06:17.248Z,8.53
2023-04-02T22:08:45.229Z,8.51
2023-04-02T22:11:18.023Z,8.50
2023-04-02T22:13:46.228Z,8.48
2023-04-02T22:16:15.268Z,8.47
2023-04-02T22:18:43.641Z,8.47
2023-04-02T22:21:11.668Z,8.46
2023-04-02T22:23:39.621Z,8.45
2023-04-02T22:26:07.825Z,8.43
2023-04-02T22:28:36.154Z,8.41
2023-04-02T22:31:07.052Z,8.40
2023-04-02T22:33:35.660Z,8.37
2023-04-02T22:36:04.107Z,8.33
2023-04-02T22:38:32.778Z,8.30
2023-04-02T22:41:07.700Z,8.29
2023-04-02T22:43:35.543Z,8.27
2023-04-02T22:46:04.354Z,8.28
2023-04-02T22:48:32.397Z,8.28
2023-04-02T22:51:01.489Z,8.29
2023-04-02T22:53:29.856Z,8.30
2023-04-02T22:56:10.861Z,8.31
2023-04-02T22:58:39.239Z,8.31
2023-04-02T23:01:17.943Z,8.29
2023-04-02T23:03:46.815Z,8.19
2023-04-02T23:06:16.184Z,8.06
2023-04-02T23:08:44.392Z,8.01
2023-04-02T23:11:14.557Z,8.04
2023-04-02T23:13:44.165Z,8.08
2023-04-02T23:16:12.421Z,8.13
2023-04-02T23:18:46.322Z,8.13
2023-04-02T23:21:14.389Z,8.08
2023-04-02T23:23:42.171Z,7.99
2023-04-02T23:26:10.017Z,7.86
2023-04-02T23:28:38.036Z,7.74
2023-04-02T23:31:06.710Z,7.70
2023-04-02T23:33:34.880Z,7.68
2023-04-02T23:36:09.733Z,7.59
2023-04-02T23:38:40.341Z,7.47
2023-04-02T23:41:08.444Z,7.39
2023-04-02T23:43:36.520Z,7.33
2023-04-02T23:46:04.493Z,7.24
2023-04-02T23:48:32.492Z,7.22
2023-04-02T23:51:00.491Z,7.25
2023-04-02T23:53:29.331Z,7.29
2023-04-02T23:55:57.117Z,7.26
2023-04-02T23:58:25.039Z,7.22
